Main page
METAR-TAF:

METAR-TAF

Airports :

Skiathos, Greece

Skiathos International Airport

latitude: 39-11N, longitude: 023-30E, elevation: 15 m

Current weather observation

The report was made 12 minutes ago, at 09:50 UTC
Wind 7 kt from the North
Temperature 20°C
Humidity 60%
Pressure 1023 hPa
Visibility 10 km or more
Few clouds at a height of 3000 ft

METAR: LGSK 190950Z 01007KT 9999 FEW030 20/12 Q1023

Time: 13:02 (10:02 UTC)

Forecast

The report was made 2 hours and 2 minutes ago, at 08:00 UTC
Forecast valid from 19 at 09 UTC to 19 at 18 UTC
Wind 10 kt from the North
Visibility 10 km or more
Few clouds at a height of 2000 ft

TAF: LGSK 190800Z 1909/1918 36010KT 9999 FEW020

Weather observations and forecasts of more than 4000 airports (METAR and TAF reports).

The available stations are represented by yellow and red dots on the map.

Hover mouse over dot to see the name of the station.

Then click to see weather observations and forecasts.

To change the map : click on the green buttons with a black cross to zoom in, on the green button with a dash to zoom out, or on the green arrows for adjacent maps.


METAR-TAF: